createdAt,value
2023-02-13T00:01:08.928Z,100.00
2023-02-13T00:07:12.311Z,100.00
2023-02-13T00:13:15.827Z,100.00
2023-02-13T00:19:19.269Z,100.00
2023-02-13T00:25:22.704Z,99.94
2023-02-13T00:31:26.228Z,100.00
2023-02-13T00:37:29.817Z,99.63
2023-02-13T00:43:33.202Z,99.47
2023-02-13T00:49:36.646Z,99.41
2023-02-13T00:55:40.152Z,99.16
2023-02-13T01:01:45.748Z,98.87
2023-02-13T01:07:49.228Z,98.45
2023-02-13T01:13:52.631Z,98.42
2023-02-13T01:19:56.215Z,98.14
2023-02-13T01:25:59.616Z,98.09
2023-02-13T01:32:03.150Z,97.97
2023-02-13T01:38:06.578Z,97.90
2023-02-13T01:44:25.244Z,97.74
2023-02-13T01:50:28.709Z,97.53
2023-02-13T01:56:38.325Z,97.64
2023-02-13T02:02:41.843Z,97.40
2023-02-13T02:08:45.322Z,97.47
2023-02-13T02:14:48.859Z,97.31
2023-02-13T02:20:55.456Z,97.39
2023-02-13T02:27:26.877Z,97.30
2023-02-13T02:33:54.954Z,97.28
2023-02-13T02:40:01.554Z,97.39
2023-02-13T02:46:14.170Z,97.19
2023-02-13T02:52:00.130Z,97.09
2023-02-13T02:58:08.041Z,97.25
2023-02-13T03:04:15.895Z,97.31
2023-02-13T03:10:20.760Z,96.95
2023-02-13T03:16:22.795Z,96.87
2023-02-13T03:22:41.061Z,96.76
2023-02-13T03:28:46.056Z,96.73
2023-02-13T03:34:52.673Z,96.46
2023-02-13T03:40:56.617Z,96.57
2023-02-13T03:47:02.068Z,96.34
2023-02-13T03:53:06.924Z,96.45
2023-02-13T03:59:09.216Z,96.58
2023-02-13T04:05:40.389Z,96.69
2023-02-13T04:11:56.107Z,96.55
2023-02-13T04:18:05.647Z,96.39
2023-02-13T04:24:09.212Z,96.64
2023-02-13T04:30:12.773Z,96.59
2023-02-13T04:36:16.415Z,96.74
2023-02-13T04:42:20.024Z,96.38
2023-02-13T04:48:22.506Z,96.41
2023-02-13T04:54:25.999Z,96.38
2023-02-13T05:00:29.581Z,96.37
2023-02-13T05:06:33.137Z,96.36
2023-02-13T05:12:36.629Z,96.30
2023-02-13T05:18:40.588Z,96.29
2023-02-13T05:24:44.368Z,96.22
2023-02-13T05:30:47.909Z,96.26
2023-02-13T05:36:51.569Z,96.04
2023-02-13T05:42:55.214Z,95.95
2023-02-13T05:48:58.721Z,95.66
2023-02-13T05:55:02.205Z,95.54
2023-02-13T06:01:04.688Z,95.44
2023-02-13T06:07:01.986Z,95.64
2023-02-13T06:13:05.465Z,95.55
2023-02-13T06:18:57.702Z,95.42
2023-02-13T06:24:55.363Z,95.12
2023-02-13T06:30:59.536Z,95.11
2023-02-13T06:37:03.314Z,95.08
2023-02-13T06:43:06.898Z,95.32
2023-02-13T06:49:10.100Z,95.03
2023-02-13T06:55:13.510Z,94.78
2023-02-13T07:01:17.491Z,94.64
2023-02-13T07:07:21.229Z,94.76
2023-02-13T07:13:24.756Z,94.63
2023-02-13T07:19:28.323Z,94.59
2023-02-13T07:25:31.844Z,94.63
2023-02-13T07:31:35.441Z,94.76
2023-02-13T07:37:39.117Z,94.64
2023-02-13T07:43:42.976Z,94.69
2023-02-13T07:49:46.823Z,94.98
2023-02-13T07:55:35.327Z,94.50
2023-02-13T08:01:33.893Z,94.96
2023-02-13T08:07:37.404Z,94.90
2023-02-13T08:13:40.991Z,94.92
2023-02-13T08:19:44.400Z,94.57
2023-02-13T08:25:47.904Z,94.62
2023-02-13T08:31:51.378Z,94.47
2023-02-13T08:37:54.909Z,94.48
2023-02-13T08:43:54.528Z,94.47
2023-02-13T08:49:57.927Z,94.45
2023-02-13T08:56:01.434Z,94.43
2023-02-13T09:02:07.645Z,94.42
2023-02-13T09:08:10.025Z,94.18
2023-02-13T09:14:13.481Z,94.30
2023-02-13T09:20:17.386Z,94.32
2023-02-13T09:26:20.688Z,94.34
2023-02-13T09:32:24.279Z,94.49
2023-02-13T09:38:27.851Z,94.88
2023-02-13T09:44:31.363Z,94.97
2023-02-13T09:50:27.313Z,94.90
2023-02-13T09:56:23.627Z,95.05
2023-02-13T10:02:18.469Z,95.23
2023-02-13T10:08:23.250Z,95.71
2023-02-13T10:14:09.535Z,95.72
2023-02-13T10:20:25.148Z,96.16
2023-02-13T10:26:13.223Z,96.31
2023-02-13T10:32:16.800Z,96.82
2023-02-13T10:38:21.245Z,96.74
2023-02-13T10:44:24.743Z,96.78
2023-02-13T10:50:39.119Z,97.00
2023-02-13T10:56:48.333Z,96.99
2023-02-13T11:03:04.372Z,96.71
2023-02-13T11:09:04.727Z,96.26
2023-02-13T11:14:59.246Z,96.21
2023-02-13T11:21:14.812Z,95.97
2023-02-13T11:27:13.666Z,95.91
2023-02-13T11:33:23.334Z,95.70
2023-02-13T11:39:26.871Z,95.27
2023-02-13T11:45:33.125Z,95.21
2023-02-13T11:51:31.642Z,95.13
2023-02-13T11:57:59.863Z,94.77
2023-02-13T12:04:06.155Z,94.60
2023-02-13T12:09:56.142Z,94.48
2023-02-13T12:16:00.311Z,94.37
2023-02-13T12:22:21.368Z,93.96
2023-02-13T12:28:26.703Z,93.68
2023-02-13T12:34:57.479Z,93.55
2023-02-13T12:41:13.216Z,93.56
2023-02-13T12:47:44.107Z,93.41
2023-02-13T12:53:49.828Z,92.51
2023-02-13T13:00:14.518Z,91.93
2023-02-13T13:06:33.103Z,90.96
2023-02-13T13:12:39.422Z,90.93
2023-02-13T13:18:48.759Z,90.28
2023-02-13T13:25:04.433Z,90.34
2023-02-13T13:31:12.563Z,90.08
2023-02-13T13:37:29.361Z,90.14
2023-02-13T13:43:51.854Z,90.12
2023-02-13T13:50:08.674Z,89.77
2023-02-13T13:56:28.053Z,89.29
2023-02-13T14:02:58.667Z,88.94
2023-02-13T14:09:17.626Z,88.85
2023-02-13T14:15:30.128Z,88.66
2023-02-13T14:21:33.907Z,88.16
2023-02-13T14:27:38.353Z,87.97
2023-02-13T14:33:40.447Z,87.35
2023-02-13T14:39:46.758Z,87.53
2023-02-13T14:45:51.305Z,87.10
2023-02-13T14:52:01.736Z,86.67
2023-02-13T14:58:07.527Z,86.88
2023-02-13T15:04:17.512Z,86.71
2023-02-13T15:10:27.543Z,86.44
2023-02-13T15:16:33.967Z,86.56
2023-02-13T15:22:20.079Z,86.52
2023-02-13T15:28:27.662Z,86.48
2023-02-13T15:34:33.819Z,86.16
2023-02-13T15:40:37.790Z,85.97
2023-02-13T15:46:42.156Z,85.92
2023-02-13T15:52:45.763Z,86.10
2023-02-13T15:58:50.045Z,85.84
2023-02-13T16:04:57.155Z,85.91
2023-02-13T16:11:15.673Z,85.87
2023-02-13T16:17:25.096Z,85.85
2023-02-13T16:23:28.677Z,85.22
2023-02-13T16:29:28.161Z,85.35
2023-02-13T16:35:32.101Z,85.33
2023-02-13T16:41:35.750Z,85.42
2023-02-13T16:47:41.939Z,85.32
2023-02-13T16:53:45.754Z,85.48
2023-02-13T16:59:58.071Z,85.60
2023-02-13T17:06:08.010Z,85.77
2023-02-13T17:12:11.632Z,85.86
2023-02-13T17:18:15.121Z,85.82
2023-02-13T17:24:18.370Z,85.64
2023-02-13T17:30:21.889Z,85.73
2023-02-13T17:36:25.303Z,85.49
2023-02-13T17:42:29.048Z,85.34
2023-02-13T17:48:32.433Z,85.05
2023-02-13T17:54:36.221Z,84.96
2023-02-13T18:00:39.629Z,84.93
2023-02-13T18:06:43.195Z,84.52
2023-02-13T18:12:49.363Z,84.80
2023-02-13T18:18:52.822Z,84.38
2023-02-13T18:24:56.221Z,84.18
2023-02-13T18:31:00.610Z,84.29
2023-02-13T18:37:04.196Z,84.13
2023-02-13T18:43:00.398Z,84.09
2023-02-13T18:49:04.502Z,84.27
2023-02-13T18:54:59.068Z,84.40
2023-02-13T19:01:04.649Z,84.54
2023-02-13T19:07:09.447Z,84.26
2023-02-13T19:13:05.357Z,84.14
2023-02-13T19:19:08.836Z,84.39
2023-02-13T19:25:12.269Z,84.38
2023-02-13T19:31:09.778Z,84.54
2023-02-13T19:37:13.264Z,84.32
2023-02-13T19:43:16.927Z,84.22
2023-02-13T19:49:21.491Z,84.40
2023-02-13T19:55:25.071Z,84.25
2023-02-13T20:01:29.635Z,84.03
2023-02-13T20:07:33.123Z,83.93
2023-02-13T20:13:37.653Z,84.05
2023-02-13T20:19:41.261Z,84.05
2023-02-13T20:25:44.693Z,83.82
2023-02-13T20:31:53.909Z,83.75
2023-02-13T20:37:57.495Z,84.06
2023-02-13T20:44:01.130Z,83.49
2023-02-13T20:50:04.558Z,83.83
2023-02-13T20:56:08.855Z,83.63
2023-02-13T21:02:15.184Z,83.33
2023-02-13T21:08:19.879Z,83.19
2023-02-13T21:14:23.262Z,83.31
2023-02-13T21:20:20.272Z,83.14
2023-02-13T21:26:23.693Z,82.96
2023-02-13T21:32:30.147Z,83.04
2023-02-13T21:38:33.583Z,82.99
2023-02-13T21:44:38.849Z,82.92
2023-02-13T21:50:41.100Z,82.80
2023-02-13T21:56:45.676Z,82.76
2023-02-13T22:02:49.129Z,82.57
2023-02-13T22:08:52.976Z,82.44
2023-02-13T22:14:57.281Z,82.49
2023-02-13T22:21:00.946Z,82.45
2023-02-13T22:27:10.195Z,82.37
2023-02-13T22:33:13.085Z,82.17
2023-02-13T22:39:16.587Z,82.48
2023-02-13T22:45:13.601Z,82.38
2023-02-13T22:51:17.255Z,82.31
2023-02-13T22:57:21.966Z,82.41
2023-02-13T23:03:25.858Z,82.15
2023-02-13T23:09:29.329Z,82.20
2023-02-13T23:15:32.951Z,82.41
2023-02-13T23:21:36.543Z,82.00
2023-02-13T23:27:40.104Z,82.26
2023-02-13T23:33:44.448Z,82.20
2023-02-13T23:39:47.910Z,82.21
2023-02-13T23:45:51.852Z,82.02
2023-02-13T23:51:55.942Z,82.15
2023-02-13T23:57:59.568Z,82.08
